createdAt,value
2022-08-04T00:01:34.627Z,2.10
2022-08-04T00:03:18.017Z,2.40
2022-08-04T00:04:56.640Z,2.28
2022-08-04T00:06:46.935Z,2.35
2022-08-04T00:08:27.540Z,2.20
2022-08-04T00:10:04.106Z,2.15
2022-08-04T00:11:40.969Z,2.20
2022-08-04T00:13:14.738Z,2.15
2022-08-04T00:14:51.139Z,1.90
2022-08-04T00:16:25.805Z,2.50
2022-08-04T00:18:09.922Z,1.80
2022-08-04T00:19:45.991Z,1.92
2022-08-04T00:21:22.436Z,2.47
2022-08-04T00:22:55.813Z,2.10
2022-08-04T00:24:31.987Z,2.33
2022-08-04T00:26:06.975Z,2.22
2022-08-04T00:27:40.688Z,2.30
2022-08-04T00:29:14.247Z,2.50
2022-08-04T00:30:47.740Z,2.22
2022-08-04T00:32:33.979Z,3.05
2022-08-04T00:34:08.919Z,2.10
2022-08-04T00:35:42.377Z,2.30
2022-08-04T00:37:16.804Z,1.92
2022-08-04T00:38:50.975Z,2.20
2022-08-04T00:40:30.476Z,2.47
2022-08-04T00:42:49.466Z,2.25
2022-08-04T00:44:41.644Z,2.35
2022-08-04T00:46:47.992Z,2.72
2022-08-04T00:48:35.169Z,2.70
2022-08-04T00:50:13.070Z,2.72
2022-08-04T00:52:32.857Z,2.55
2022-08-04T00:53:56.382Z,2.60
2022-08-04T00:55:43.335Z,2.80
2022-08-04T00:57:34.537Z,2.67
2022-08-04T00:59:20.117Z,2.45
2022-08-04T01:01:00.499Z,2.40
2022-08-04T01:02:38.918Z,2.53
2022-08-04T01:04:22.033Z,2.45
2022-08-04T01:06:07.639Z,2.92
2022-08-04T01:08:10.976Z,2.28
2022-08-04T01:09:58.400Z,2.95
2022-08-04T01:11:57.392Z,2.65
2022-08-04T01:13:48.854Z,2.53
2022-08-04T01:16:00.100Z,2.47
2022-08-04T01:17:38.889Z,2.80
2022-08-04T01:19:35.744Z,2.92
2022-08-04T01:21:42.747Z,2.70
2022-08-04T01:23:51.922Z,3.20
2022-08-04T01:25:39.279Z,3.33
2022-08-04T01:27:27.477Z,2.67
2022-08-04T01:29:11.076Z,2.92
2022-08-04T01:30:50.950Z,2.60
2022-08-04T01:32:33.149Z,2.70
2022-08-04T01:34:10.233Z,2.33
2022-08-04T01:35:48.963Z,2.22
2022-08-04T01:37:36.431Z,3.03
2022-08-04T01:39:24.799Z,2.78
2022-08-04T01:41:03.825Z,2.97
2022-08-04T01:42:38.916Z,2.58
2022-08-04T01:44:15.901Z,3.50
2022-08-04T01:45:52.233Z,3.30
2022-08-04T01:47:29.998Z,2.67
2022-08-04T01:49:04.851Z,3.05
2022-08-04T01:50:38.553Z,2.80
2022-08-04T01:52:12.366Z,2.55
2022-08-04T01:53:46.030Z,2.58
2022-08-04T01:55:19.624Z,2.75
2022-08-04T01:56:54.751Z,3.40
2022-08-04T01:58:30.946Z,3.30
2022-08-04T02:00:07.004Z,3.90
2022-08-04T02:01:39.328Z,3.60
2022-08-04T02:03:14.244Z,3.58
2022-08-04T02:04:47.525Z,3.38
2022-08-04T02:06:32.819Z,3.53
2022-08-04T02:08:20.154Z,3.10
2022-08-04T02:10:05.528Z,2.83
2022-08-04T02:11:42.309Z,2.92
2022-08-04T02:13:24.672Z,2.47
2022-08-04T02:15:04.473Z,2.58
2022-08-04T02:16:52.725Z,2.60
2022-08-04T02:18:32.000Z,2.47
2022-08-04T02:20:08.237Z,2.65
2022-08-04T02:21:43.113Z,2.17
2022-08-04T02:25:19.806Z,2.88
2022-08-04T02:26:57.815Z,2.97
2022-08-04T02:28:36.632Z,2.58
2022-08-04T02:30:09.811Z,3.20
2022-08-04T02:31:50.198Z,3.22
2022-08-04T02:33:30.571Z,3.25
2022-08-04T02:35:08.296Z,3.67
2022-08-04T02:36:43.348Z,3.70
2022-08-04T02:38:25.519Z,3.30
2022-08-04T02:40:02.742Z,3.03
2022-08-04T02:41:38.590Z,2.78
2022-08-04T02:43:12.126Z,2.75
2022-08-04T02:44:51.356Z,2.97
2022-08-04T02:46:25.964Z,2.65
2022-08-04T02:48:29.062Z,2.60
2022-08-04T02:49:58.864Z,2.63
2022-08-04T02:51:35.505Z,2.85
2022-08-04T02:53:13.224Z,2.67
2022-08-04T02:54:48.869Z,2.65
2022-08-04T02:56:23.593Z,2.80
2022-08-04T02:58:00.409Z,3.05
2022-08-04T02:59:53.175Z,2.75
2022-08-04T03:01:27.217Z,2.67
2022-08-04T03:03:16.267Z,2.75
2022-08-04T03:04:56.584Z,2.63
2022-08-04T03:06:55.157Z,3.00
2022-08-04T03:09:01.725Z,2.70
2022-08-04T03:11:06.844Z,3.00
2022-08-04T03:13:23.815Z,3.00
2022-08-04T03:15:35.039Z,3.80
2022-08-04T03:17:52.905Z,3.60
2022-08-04T03:20:11.105Z,3.70
2022-08-04T03:22:25.259Z,3.10
2022-08-04T03:24:40.315Z,3.10
2022-08-04T03:26:39.861Z,4.03
2022-08-04T03:28:52.294Z,4.45
2022-08-04T03:30:39.568Z,4.43
2022-08-04T03:32:57.558Z,4.20
2022-08-04T03:34:45.451Z,3.90
2022-08-04T03:36:49.905Z,3.95
2022-08-04T03:38:57.576Z,3.90
2022-08-04T03:40:39.049Z,3.72
2022-08-04T03:42:40.582Z,3.25
2022-08-04T03:44:36.541Z,3.00
2022-08-04T03:46:31.738Z,2.70
2022-08-04T03:48:19.858Z,4.28
2022-08-04T03:50:36.232Z,2.65
2022-08-04T03:52:48.044Z,4.50
2022-08-04T03:54:40.207Z,2.75
2022-08-04T03:56:49.661Z,2.95
2022-08-04T03:58:54.004Z,3.58
2022-08-04T04:00:32.374Z,3.13
2022-08-04T04:02:41.069Z,2.92
2022-08-04T04:04:36.028Z,3.08
2022-08-04T04:06:34.200Z,3.47
2022-08-04T04:08:46.836Z,3.88
2022-08-04T04:10:40.308Z,2.92
2022-08-04T04:12:31.094Z,3.08
2022-08-04T04:14:19.569Z,3.03
2022-08-04T04:16:08.383Z,3.30
2022-08-04T04:18:04.446Z,3.10
2022-08-04T04:20:03.328Z,3.80
2022-08-04T04:22:13.494Z,3.33
2022-08-04T04:24:07.542Z,3.20
2022-08-04T04:25:54.226Z,4.28
2022-08-04T04:27:38.952Z,3.72
2022-08-04T04:29:35.134Z,3.78
2022-08-04T04:31:36.141Z,4.20
2022-08-04T04:33:32.933Z,4.13
2022-08-04T04:35:18.630Z,3.90
2022-08-04T04:37:05.354Z,4.72
2022-08-04T04:39:14.128Z,3.85
2022-08-04T04:41:01.908Z,4.50
2022-08-04T04:43:02.395Z,5.53
2022-08-04T04:44:57.186Z,3.50
2022-08-04T04:46:40.603Z,3.97
2022-08-04T04:48:25.676Z,3.97
2022-08-04T04:50:06.855Z,3.45
2022-08-04T04:51:45.042Z,3.25
2022-08-04T04:53:25.579Z,3.75
2022-08-04T04:55:05.913Z,4.50
2022-08-04T04:56:45.102Z,4.47
2022-08-04T04:58:21.428Z,2.95
2022-08-04T05:00:03.580Z,3.78
2022-08-04T05:02:03.940Z,3.45
2022-08-04T05:03:57.246Z,3.30
2022-08-04T05:05:43.461Z,3.13
2022-08-04T05:07:53.272Z,3.20
2022-08-04T05:09:38.747Z,3.60
2022-08-04T05:11:45.631Z,3.17
2022-08-04T05:14:34.553Z,2.97
2022-08-04T05:15:31.988Z,3.30
2022-08-04T05:17:13.825Z,3.00
2022-08-04T05:18:56.445Z,3.38
2022-08-04T05:20:35.861Z,3.67
2022-08-04T05:22:14.828Z,3.33
2022-08-04T05:23:55.046Z,3.88
2022-08-04T05:25:36.017Z,2.72
2022-08-04T05:27:16.071Z,3.30
2022-08-04T05:28:54.898Z,3.10
2022-08-04T05:30:30.136Z,3.25
2022-08-04T05:32:08.771Z,3.30
2022-08-04T05:33:47.787Z,2.47
2022-08-04T05:35:47.928Z,2.40
2022-08-04T05:37:30.250Z,3.08
2022-08-04T05:39:07.286Z,2.30
2022-08-04T05:40:41.473Z,2.88
2022-08-04T05:42:15.678Z,2.58
2022-08-04T05:43:51.446Z,2.58
2022-08-04T05:45:25.959Z,2.38
2022-08-04T05:47:00.053Z,2.35
2022-08-04T05:48:34.590Z,2.25
2022-08-04T05:50:09.824Z,2.50
2022-08-04T05:51:46.207Z,2.65
2022-08-04T05:53:21.070Z,2.88
2022-08-04T05:54:55.606Z,2.60
2022-08-04T05:56:29.825Z,2.78
2022-08-04T05:58:03.627Z,2.67
2022-08-04T05:59:39.753Z,2.28
2022-08-04T06:01:14.917Z,2.63
2022-08-04T06:02:51.019Z,2.47
2022-08-04T06:04:26.218Z,2.30
2022-08-04T06:06:00.176Z,2.10
2022-08-04T06:07:35.720Z,2.70
2022-08-04T06:09:29.473Z,2.50
2022-08-04T06:11:06.218Z,2.95
2022-08-04T06:12:45.305Z,2.03
2022-08-04T06:14:21.628Z,2.13
2022-08-04T06:15:59.347Z,2.10
2022-08-04T06:19:40.148Z,1.98
2022-08-04T06:20:02.665Z,2.70
2022-08-04T06:21:28.586Z,2.60
2022-08-04T06:23:05.867Z,2.70
2022-08-04T06:24:41.869Z,2.55
2022-08-04T06:26:19.855Z,2.00
2022-08-04T06:27:54.004Z,1.92
2022-08-04T06:29:34.632Z,2.60
2022-08-04T06:32:27.885Z,2.10
2022-08-04T06:33:13.942Z,2.50
2022-08-04T06:34:48.190Z,2.40
2022-08-04T06:36:21.626Z,2.03
2022-08-04T06:38:00.747Z,1.95
2022-08-04T06:39:37.951Z,2.10
2022-08-04T06:41:12.429Z,2.00
2022-08-04T06:42:46.925Z,2.00
2022-08-04T06:44:26.000Z,1.77
2022-08-04T06:46:02.967Z,2.45
2022-08-04T06:47:38.521Z,1.98
2022-08-04T06:49:12.695Z,2.03
2022-08-04T06:51:25.534Z,2.15
2022-08-04T06:52:46.072Z,2.53
2022-08-04T06:54:19.643Z,2.00
2022-08-04T06:55:55.961Z,2.67
2022-08-04T06:57:31.569Z,1.90
2022-08-04T06:59:08.143Z,3.13
2022-08-04T07:00:43.417Z,2.20
2022-08-04T07:02:18.530Z,2.30
2022-08-04T07:03:52.902Z,2.85
2022-08-04T07:05:26.793Z,2.20
2022-08-04T07:07:00.766Z,3.28
2022-08-04T07:08:35.990Z,2.55
2022-08-04T07:10:10.378Z,2.70
2022-08-04T07:11:47.284Z,2.60
2022-08-04T07:13:22.372Z,2.83
2022-08-04T07:14:56.114Z,2.95
2022-08-04T07:16:30.842Z,2.58
2022-08-04T07:18:05.294Z,2.55
2022-08-04T07:19:38.731Z,2.53
2022-08-04T07:21:12.968Z,2.47
2022-08-04T07:22:48.400Z,2.03
2022-08-04T07:24:21.879Z,2.58
2022-08-04T07:26:11.012Z,2.30
2022-08-04T07:27:49.349Z,2.22
2022-08-04T07:29:24.227Z,2.65
2022-08-04T07:30:59.600Z,2.42
2022-08-04T07:32:34.255Z,2.17
2022-08-04T07:34:20.646Z,2.17
2022-08-04T07:36:05.546Z,2.42
2022-08-04T07:37:43.089Z,2.30
2022-08-04T07:39:27.325Z,1.98
2022-08-04T07:41:03.919Z,1.88
2022-08-04T07:42:39.805Z,2.53
2022-08-04T07:44:16.065Z,1.85
2022-08-04T07:45:49.512Z,2.17
2022-08-04T07:47:25.486Z,1.40
2022-08-04T07:48:59.492Z,1.33
2022-08-04T07:50:33.784Z,1.60
2022-08-04T07:52:08.722Z,1.52
2022-08-04T07:53:54.822Z,1.60
2022-08-04T07:55:30.268Z,1.40
2022-08-04T07:57:05.774Z,1.80
2022-08-04T07:58:39.105Z,1.38
2022-08-04T08:00:15.274Z,1.50
2022-08-04T08:01:49.158Z,1.40
2022-08-04T08:03:23.933Z,1.25
2022-08-04T08:04:57.793Z,1.33
2022-08-04T08:06:35.553Z,1.27
2022-08-04T08:08:11.771Z,1.75
2022-08-04T08:09:45.477Z,1.63
2022-08-04T08:11:18.811Z,1.38
2022-08-04T08:12:53.164Z,1.40
2022-08-04T08:14:26.863Z,2.10
2022-08-04T08:16:02.493Z,0.90
2022-08-04T08:17:58.279Z,1.00
2022-08-04T08:19:29.648Z,1.27
2022-08-04T08:21:03.757Z,1.50
2022-08-04T08:22:38.019Z,1.38
2022-08-04T08:24:13.045Z,1.42
2022-08-04T08:25:46.889Z,1.10
2022-08-04T08:27:20.554Z,1.58
2022-08-04T08:28:54.539Z,1.10
2022-08-04T08:30:31.849Z,1.80
2022-08-04T08:32:13.348Z,1.08
2022-08-04T08:33:47.657Z,0.95
2022-08-04T08:35:22.077Z,1.40
2022-08-04T08:37:00.726Z,1.17
2022-08-04T08:38:42.169Z,1.05
2022-08-04T08:40:39.196Z,1.00
2022-08-04T08:42:48.420Z,1.20
2022-08-04T08:44:58.246Z,1.27
2022-08-04T08:46:50.274Z,1.30
2022-08-04T08:48:42.090Z,1.10
2022-08-04T08:50:38.196Z,0.90
2022-08-04T08:53:00.627Z,1.10
2022-08-04T08:54:48.522Z,1.20
2022-08-04T08:56:33.373Z,2.03
2022-08-04T08:58:37.130Z,1.20
2022-08-04T09:00:16.999Z,0.70
2022-08-04T09:02:18.380Z,0.70
2022-08-04T09:04:41.733Z,1.33
2022-08-04T09:06:38.326Z,1.00
2022-08-04T09:08:27.549Z,1.10
2022-08-04T09:10:12.136Z,0.93
2022-08-04T09:11:51.359Z,1.60
2022-08-04T09:13:35.718Z,0.90
2022-08-04T09:15:15.027Z,1.20
2022-08-04T09:16:55.115Z,1.23
2022-08-04T09:18:37.937Z,1.00
2022-08-04T09:20:18.157Z,0.95
2022-08-04T09:22:00.286Z,1.30
2022-08-04T09:23:42.266Z,1.33
2022-08-04T09:25:25.385Z,1.75
2022-08-04T09:27:01.993Z,1.40
2022-08-04T09:28:55.209Z,0.90
2022-08-04T09:30:34.133Z,1.10
2022-08-04T09:32:18.186Z,1.10
2022-08-04T09:34:00.941Z,1.20
2022-08-04T09:35:47.158Z,0.98
2022-08-04T09:37:33.215Z,1.00
2022-08-04T09:39:27.818Z,1.00
2022-08-04T09:41:20.891Z,1.15
2022-08-04T09:43:14.849Z,1.40
2022-08-04T09:45:05.626Z,1.10
2022-08-04T09:46:46.180Z,1.33
2022-08-04T09:48:29.758Z,1.10
2022-08-04T09:50:13.493Z,1.10
2022-08-04T09:52:00.169Z,1.20
2022-08-04T09:53:51.339Z,1.50
2022-08-04T09:55:35.808Z,1.17
2022-08-04T09:57:38.439Z,1.20
2022-08-04T09:59:21.370Z,1.27
2022-08-04T10:01:03.091Z,1.52
2022-08-04T10:02:40.524Z,1.30
2022-08-04T10:04:18.003Z,1.40
2022-08-04T10:06:08.257Z,1.25
2022-08-04T10:08:15.902Z,1.65
2022-08-04T10:10:11.648Z,1.75
2022-08-04T10:12:03.077Z,1.58
2022-08-04T10:13:49.993Z,1.27
2022-08-04T10:15:30.389Z,1.60
2022-08-04T10:17:27.527Z,1.70
2022-08-04T10:19:10.717Z,1.33
2022-08-04T10:20:57.388Z,1.10
2022-08-04T10:22:55.400Z,1.73
2022-08-04T10:24:51.119Z,1.67
2022-08-04T10:26:34.583Z,1.25
2022-08-04T10:28:13.423Z,1.17
2022-08-04T10:29:48.823Z,1.90
2022-08-04T10:31:28.001Z,1.30
2022-08-04T10:33:08.967Z,1.30
2022-08-04T10:34:50.034Z,1.30
2022-08-04T10:36:25.956Z,1.30
2022-08-04T10:38:06.421Z,1.42
2022-08-04T10:40:08.608Z,1.40
2022-08-04T10:41:54.327Z,1.20
2022-08-04T10:43:42.718Z,1.20
2022-08-04T10:45:19.607Z,1.25
2022-08-04T10:46:57.029Z,1.98
2022-08-04T10:48:42.263Z,1.60
2022-08-04T10:50:25.016Z,1.63
2022-08-04T10:52:06.837Z,1.50
2022-08-04T10:53:41.682Z,1.63
2022-08-04T10:55:20.113Z,1.45
2022-08-04T10:57:01.616Z,1.20
2022-08-04T10:58:47.366Z,1.67
2022-08-04T11:00:26.087Z,1.10
2022-08-04T11:02:11.823Z,1.40
2022-08-04T11:03:53.253Z,1.17
2022-08-04T11:05:34.462Z,1.30
2022-08-04T11:07:19.364Z,1.42
2022-08-04T11:08:56.051Z,1.67
2022-08-04T11:10:34.341Z,2.10
2022-08-04T11:12:16.274Z,1.35
2022-08-04T11:14:00.516Z,2.60
2022-08-04T11:15:39.239Z,3.92
2022-08-04T11:17:20.330Z,1.85
2022-08-04T11:19:08.119Z,1.40
2022-08-04T11:20:47.997Z,2.72
2022-08-04T11:22:27.230Z,1.63
2022-08-04T11:24:05.001Z,2.60
2022-08-04T11:25:52.271Z,1.40
2022-08-04T11:27:37.269Z,1.45
2022-08-04T11:29:18.412Z,1.50
2022-08-04T11:30:57.408Z,1.85
2022-08-04T11:32:37.215Z,1.25
2022-08-04T11:34:21.819Z,1.55
2022-08-04T11:36:04.343Z,3.00
2022-08-04T11:37:46.856Z,1.67
2022-08-04T11:39:29.879Z,1.20
2022-08-04T11:41:12.236Z,1.30
2022-08-04T11:42:57.992Z,1.25
2022-08-04T11:44:36.366Z,1.40
2022-08-04T11:46:15.310Z,1.27
2022-08-04T11:47:55.338Z,1.20
2022-08-04T11:49:56.519Z,1.35
2022-08-04T11:51:30.566Z,1.50
2022-08-04T11:53:04.940Z,1.40
2022-08-04T11:54:39.785Z,1.50
2022-08-04T11:56:35.960Z,1.90
2022-08-04T11:58:12.143Z,1.40
2022-08-04T11:59:49.131Z,1.45
2022-08-04T12:01:30.107Z,1.48
2022-08-04T12:03:16.794Z,1.92
2022-08-04T12:04:58.458Z,1.48
2022-08-04T12:06:38.441Z,1.40
2022-08-04T12:08:41.013Z,1.35
2022-08-04T12:10:41.000Z,1.30
2022-08-04T12:12:26.055Z,1.65
2022-08-04T12:14:11.836Z,1.67
2022-08-04T12:15:57.512Z,1.30
2022-08-04T12:17:52.491Z,1.48
2022-08-04T12:19:47.173Z,1.20
2022-08-04T12:21:32.968Z,1.38
2022-08-04T12:23:15.033Z,1.25
2022-08-04T12:24:58.277Z,1.70
2022-08-04T12:26:38.472Z,1.33
2022-08-04T12:28:17.848Z,1.30
2022-08-04T12:30:54.201Z,1.42
2022-08-04T12:31:54.030Z,1.83
2022-08-04T12:34:03.283Z,1.15
2022-08-04T12:35:35.428Z,1.73
2022-08-04T12:37:22.091Z,1.40
2022-08-04T12:39:03.111Z,1.70
2022-08-04T12:40:43.404Z,1.10
2022-08-04T12:42:24.284Z,1.42
2022-08-04T12:44:07.588Z,1.30
2022-08-04T12:46:06.080Z,1.83
2022-08-04T12:47:41.961Z,1.38
2022-08-04T12:49:17.279Z,1.17
2022-08-04T12:50:53.986Z,1.38
2022-08-04T12:52:45.376Z,1.20
2022-08-04T12:54:29.013Z,1.20
2022-08-04T12:56:04.103Z,1.15
2022-08-04T12:57:38.204Z,1.30
2022-08-04T12:59:14.203Z,1.30
2022-08-04T13:00:54.985Z,1.38
2022-08-04T13:02:35.144Z,1.20
2022-08-04T13:04:14.467Z,1.10
2022-08-04T13:05:50.130Z,1.10
2022-08-04T13:07:26.363Z,1.20
2022-08-04T13:09:06.677Z,1.20
2022-08-04T13:10:46.325Z,1.00
2022-08-04T13:12:26.008Z,1.10
2022-08-04T13:14:26.119Z,1.13
2022-08-04T13:16:02.625Z,1.40
2022-08-04T13:17:53.367Z,1.27
2022-08-04T13:19:41.599Z,1.33
2022-08-04T13:21:21.386Z,1.65
2022-08-04T13:23:02.066Z,1.27
2022-08-04T13:24:56.858Z,1.63
2022-08-04T13:26:44.055Z,1.40
2022-08-04T13:28:29.270Z,1.20
2022-08-04T13:30:04.050Z,1.65
2022-08-04T13:31:38.773Z,1.33
2022-08-04T13:33:14.571Z,1.60
2022-08-04T13:34:52.723Z,1.40
2022-08-04T13:36:27.937Z,1.40
2022-08-04T13:38:03.059Z,1.40
2022-08-04T13:39:37.435Z,1.55
2022-08-04T13:41:11.218Z,1.20
2022-08-04T13:42:48.818Z,1.10
2022-08-04T13:44:25.512Z,1.30
2022-08-04T13:46:05.076Z,1.35
2022-08-04T13:47:41.476Z,1.52
2022-08-04T13:51:13.363Z,1.60
2022-08-04T13:52:48.156Z,1.10
2022-08-04T13:54:21.851Z,1.17
2022-08-04T13:56:00.702Z,1.23
2022-08-04T13:57:44.369Z,1.25
2022-08-04T13:59:20.606Z,1.15
2022-08-04T14:01:00.184Z,1.40
2022-08-04T14:02:39.087Z,1.30
2022-08-04T14:04:21.822Z,1.20
2022-08-04T14:06:16.032Z,1.30
2022-08-04T14:07:54.693Z,1.50
2022-08-04T14:09:34.793Z,1.45
2022-08-04T14:11:09.300Z,1.30
2022-08-04T14:13:05.816Z,1.33
2022-08-04T14:14:47.017Z,1.38
2022-08-04T14:16:22.933Z,1.52
2022-08-04T14:17:56.383Z,1.52
2022-08-04T14:19:48.769Z,1.55
2022-08-04T14:21:22.068Z,1.27
2022-08-04T14:23:02.752Z,1.30
2022-08-04T14:24:36.192Z,1.30
2022-08-04T14:26:31.401Z,2.70
2022-08-04T14:28:06.792Z,1.30
2022-08-04T14:29:41.971Z,1.20
2022-08-04T14:31:17.673Z,1.27
2022-08-04T14:34:04.304Z,1.35
2022-08-04T14:34:58.105Z,1.15
2022-08-04T14:37:13.231Z,1.30
2022-08-04T14:38:58.602Z,1.20
2022-08-04T14:40:35.886Z,1.40
2022-08-04T14:42:09.910Z,1.40
2022-08-04T14:43:48.170Z,1.13
2022-08-04T14:45:32.515Z,1.63
2022-08-04T14:47:06.191Z,1.17
2022-08-04T14:49:16.586Z,2.30
2022-08-04T14:50:52.651Z,1.20
2022-08-04T14:52:27.091Z,1.42
2022-08-04T14:54:03.860Z,1.30
2022-08-04T14:55:41.051Z,1.73
2022-08-04T14:57:18.243Z,1.70
2022-08-04T14:59:01.044Z,1.50
2022-08-04T15:00:36.175Z,1.85
2022-08-04T15:02:10.648Z,1.60
2022-08-04T15:03:50.160Z,1.83
2022-08-04T15:06:02.324Z,1.30
2022-08-04T15:07:21.275Z,1.30
2022-08-04T15:08:56.584Z,1.98
2022-08-04T15:10:30.617Z,1.88
2022-08-04T15:12:05.576Z,1.95
2022-08-04T15:13:39.123Z,1.40
2022-08-04T15:15:35.440Z,1.60
2022-08-04T15:17:12.179Z,1.38
2022-08-04T15:19:01.026Z,1.73
2022-08-04T15:20:34.611Z,1.42
2022-08-04T15:22:17.176Z,1.40
2022-08-04T15:23:52.601Z,1.40
2022-08-04T15:25:26.863Z,1.20
2022-08-04T15:27:04.126Z,1.60
2022-08-04T15:28:41.112Z,1.58
2022-08-04T15:30:18.517Z,1.50
2022-08-04T15:32:06.046Z,1.75
2022-08-04T15:33:42.746Z,1.60
2022-08-04T15:35:26.591Z,1.92
2022-08-04T15:37:06.937Z,1.50
2022-08-04T15:38:46.300Z,1.38
2022-08-04T15:40:33.630Z,2.80
2022-08-04T15:42:20.917Z,1.42
2022-08-04T15:44:19.167Z,1.45
2022-08-04T15:46:41.786Z,1.70
2022-08-04T15:48:35.484Z,1.80
2022-08-04T15:50:11.502Z,1.70
2022-08-04T15:51:45.171Z,1.50
2022-08-04T15:53:23.059Z,2.28
2022-08-04T15:55:34.726Z,1.42
2022-08-04T15:57:08.397Z,1.38
2022-08-04T15:58:51.555Z,1.40
2022-08-04T16:00:24.863Z,2.75
2022-08-04T16:02:31.551Z,1.55
2022-08-04T16:04:22.469Z,1.90
2022-08-04T16:05:56.057Z,1.50
2022-08-04T16:07:54.702Z,1.98
2022-08-04T16:09:45.103Z,1.55
2022-08-04T16:11:41.953Z,1.55
2022-08-04T16:13:17.064Z,1.50
2022-08-04T16:14:50.561Z,1.60
2022-08-04T16:16:29.287Z,1.40
2022-08-04T16:18:02.730Z,1.50
2022-08-04T16:19:52.117Z,1.20
2022-08-04T16:21:26.990Z,1.23
2022-08-04T16:23:31.714Z,1.88
2022-08-04T16:25:10.749Z,1.50
2022-08-04T16:26:55.100Z,1.48
2022-08-04T16:28:41.881Z,1.38
2022-08-04T16:30:16.876Z,1.30
2022-08-04T16:32:11.098Z,1.60
2022-08-04T16:33:48.403Z,1.50
2022-08-04T16:35:42.218Z,1.58
2022-08-04T16:37:15.993Z,1.30
2022-08-04T16:39:06.923Z,2.10
2022-08-04T16:40:44.518Z,1.40
2022-08-04T16:42:34.392Z,1.25
2022-08-04T16:44:52.300Z,1.45
2022-08-04T16:47:21.867Z,1.50
2022-08-04T16:48:37.515Z,1.45
2022-08-04T16:50:10.222Z,1.92
2022-08-04T16:51:44.483Z,1.60
2022-08-04T16:54:02.930Z,1.95
2022-08-04T16:55:13.565Z,1.55
2022-08-04T16:56:48.210Z,1.60
2022-08-04T16:58:29.869Z,1.40
2022-08-04T17:00:07.458Z,1.58
2022-08-04T17:01:48.088Z,1.60
2022-08-04T17:03:22.252Z,1.30
2022-08-04T17:05:01.011Z,1.48
2022-08-04T17:06:43.146Z,1.45
2022-08-04T17:08:29.764Z,1.42
2022-08-04T17:10:03.743Z,1.75
2022-08-04T17:11:37.560Z,1.80
2022-08-04T17:14:03.066Z,1.45
2022-08-04T17:15:22.082Z,2.00
2022-08-04T17:16:59.853Z,1.85
2022-08-04T17:18:35.301Z,1.90
2022-08-04T17:20:09.628Z,1.58
2022-08-04T17:21:44.193Z,1.63
2022-08-04T17:24:13.197Z,1.77
2022-08-04T17:25:51.474Z,1.77
2022-08-04T17:28:09.789Z,1.58
2022-08-04T17:29:12.611Z,1.50
2022-08-04T17:30:54.040Z,1.85
2022-08-04T17:32:28.072Z,1.70
2022-08-04T17:34:03.980Z,1.83
2022-08-04T17:35:41.524Z,1.60
2022-08-04T17:37:38.889Z,1.85
2022-08-04T17:39:17.893Z,1.55
2022-08-04T17:40:58.217Z,1.60
2022-08-04T17:42:34.455Z,1.67
2022-08-04T17:44:08.254Z,2.05
2022-08-04T17:45:53.559Z,1.98
2022-08-04T17:47:30.047Z,3.53
2022-08-04T17:49:20.497Z,3.92
2022-08-04T17:50:53.117Z,6.45
2022-08-04T17:52:44.653Z,2.90
2022-08-04T17:54:29.778Z,1.85
2022-08-04T17:56:36.311Z,2.10
2022-08-04T17:58:27.063Z,2.20
2022-08-04T18:00:00.813Z,1.92
2022-08-04T18:01:52.249Z,2.33
2022-08-04T18:03:29.167Z,2.10
2022-08-04T18:05:05.549Z,2.05
2022-08-04T18:06:51.448Z,1.85
2022-08-04T18:08:38.851Z,2.03
2022-08-04T18:10:30.654Z,1.67
2022-08-04T18:12:14.887Z,1.95
2022-08-04T18:13:54.646Z,2.60
2022-08-04T18:18:20.800Z,2.40
2022-08-04T18:19:31.306Z,2.70
2022-08-04T18:21:05.678Z,2.30
2022-08-04T18:22:42.004Z,1.65
2022-08-04T18:24:16.565Z,1.73
2022-08-04T18:25:51.099Z,2.13
2022-08-04T18:27:29.776Z,1.98
2022-08-04T18:29:04.918Z,2.10
2022-08-04T18:30:54.894Z,1.67
2022-08-04T18:32:33.406Z,1.83
2022-08-04T18:34:13.674Z,1.75
2022-08-04T18:36:32.615Z,1.67
2022-08-04T18:38:06.214Z,1.80
2022-08-04T18:40:17.409Z,2.10
2022-08-04T18:42:01.187Z,2.50
2022-08-04T18:43:40.512Z,1.52
2022-08-04T18:45:15.389Z,1.67
2022-08-04T18:46:50.789Z,1.70
2022-08-04T18:48:36.325Z,2.85
2022-08-04T18:50:59.983Z,1.60
2022-08-04T18:52:08.071Z,1.58
2022-08-04T18:53:45.011Z,1.90
2022-08-04T18:55:56.093Z,1.73
2022-08-04T18:57:32.447Z,1.98
2022-08-04T18:59:23.169Z,1.90
2022-08-04T19:00:56.121Z,1.52
2022-08-04T19:02:34.408Z,1.63
2022-08-04T19:04:32.323Z,2.00
2022-08-04T19:06:03.908Z,1.73
2022-08-04T19:08:11.586Z,1.80
2022-08-04T19:09:51.195Z,2.00
2022-08-04T19:11:54.688Z,1.65
2022-08-04T19:13:25.615Z,1.70
2022-08-04T19:15:08.660Z,1.60
2022-08-04T19:16:47.351Z,2.13
2022-08-04T19:18:19.986Z,2.05
2022-08-04T19:19:54.012Z,1.80
2022-08-04T19:22:00.801Z,2.00
2022-08-04T19:24:29.285Z,1.77
2022-08-04T19:25:59.179Z,1.63
2022-08-04T19:27:13.179Z,1.70
2022-08-04T19:28:50.754Z,1.90
2022-08-04T19:30:24.466Z,1.85
2022-08-04T19:31:58.161Z,2.00
2022-08-04T19:33:58.730Z,1.98
2022-08-04T19:35:25.298Z,2.08
2022-08-04T19:37:04.563Z,2.00
2022-08-04T19:38:38.903Z,2.47
2022-08-04T19:40:13.173Z,2.30
2022-08-04T19:42:04.607Z,2.28
2022-08-04T19:43:38.769Z,2.08
2022-08-04T19:45:17.466Z,2.65
2022-08-04T19:46:51.299Z,2.25
2022-08-04T19:48:30.386Z,2.80
2022-08-04T19:50:10.372Z,2.33
2022-08-04T19:51:46.288Z,2.15
2022-08-04T19:55:37.072Z,1.85
2022-08-04T19:57:25.127Z,2.22
2022-08-04T19:59:05.928Z,1.90
2022-08-04T20:00:51.009Z,2.50
2022-08-04T20:02:25.081Z,2.13
2022-08-04T20:04:10.385Z,2.03
2022-08-04T20:05:53.762Z,2.10
2022-08-04T20:07:30.197Z,1.95
2022-08-04T20:11:00.629Z,2.78
2022-08-04T20:12:34.250Z,2.20
2022-08-04T20:14:15.205Z,2.30
2022-08-04T20:15:55.363Z,2.88
2022-08-04T20:18:08.295Z,2.20
2022-08-04T20:19:25.753Z,2.80
2022-08-04T20:21:00.282Z,2.30
2022-08-04T20:22:52.526Z,1.98
2022-08-04T20:24:37.648Z,1.67
2022-08-04T20:26:15.288Z,2.20
2022-08-04T20:27:51.652Z,1.90
2022-08-04T20:29:40.284Z,2.25
2022-08-04T20:31:18.183Z,2.20
2022-08-04T20:32:54.117Z,2.10
2022-08-04T20:34:27.594Z,2.72
2022-08-04T20:36:05.589Z,2.03
2022-08-04T20:37:57.679Z,2.13
2022-08-04T20:39:35.508Z,2.03
2022-08-04T20:41:09.402Z,2.08
2022-08-04T20:42:45.042Z,1.77
2022-08-04T20:44:24.159Z,2.05
2022-08-04T20:45:59.511Z,2.10
2022-08-04T20:47:35.293Z,2.20
2022-08-04T20:49:09.286Z,2.15
2022-08-04T20:50:45.166Z,2.10
2022-08-04T20:52:20.711Z,2.10
2022-08-04T20:53:54.427Z,2.25
2022-08-04T20:55:29.623Z,1.83
2022-08-04T20:57:03.271Z,1.92
2022-08-04T20:58:37.170Z,2.17
2022-08-04T21:00:13.147Z,2.20
2022-08-04T21:01:49.556Z,2.28
2022-08-04T21:03:38.501Z,1.95
2022-08-04T21:05:19.783Z,1.85
2022-08-04T21:06:53.087Z,2.35
2022-08-04T21:08:27.030Z,2.78
2022-08-04T21:10:00.971Z,2.60
2022-08-04T21:11:37.089Z,1.88
2022-08-04T21:13:10.447Z,1.65
2022-08-04T21:14:44.005Z,2.10
2022-08-04T21:16:55.263Z,2.45
2022-08-04T21:18:17.018Z,1.85
2022-08-04T21:19:50.485Z,2.10
2022-08-04T21:21:23.720Z,2.38
2022-08-04T21:23:08.795Z,2.70
2022-08-04T21:24:42.235Z,2.15
2022-08-04T21:26:25.957Z,2.20
2022-08-04T21:28:04.392Z,2.50
2022-08-04T21:29:38.404Z,2.22
2022-08-04T21:31:22.184Z,2.47
2022-08-04T21:32:55.845Z,2.40
2022-08-04T21:34:38.550Z,2.95
2022-08-04T21:36:14.080Z,2.40
2022-08-04T21:37:58.154Z,2.35
2022-08-04T21:41:28.042Z,2.38
2022-08-04T21:43:02.857Z,3.00
2022-08-04T21:44:36.268Z,2.33
2022-08-04T21:46:11.418Z,2.40
2022-08-04T21:47:49.126Z,2.45
2022-08-04T21:49:22.918Z,1.95
2022-08-04T21:50:55.427Z,1.95
2022-08-04T21:52:30.609Z,2.00
2022-08-04T21:54:05.557Z,2.15
2022-08-04T21:56:05.519Z,2.10
2022-08-04T21:57:32.680Z,2.22
2022-08-04T21:59:14.507Z,2.05
2022-08-04T22:00:52.626Z,2.05
2022-08-04T22:02:26.080Z,2.20
2022-08-04T22:03:59.622Z,2.53
2022-08-04T22:05:33.317Z,2.60
2022-08-04T22:07:06.715Z,2.40
2022-08-04T22:08:41.200Z,2.20
2022-08-04T22:10:32.640Z,2.15
2022-08-04T22:12:07.214Z,2.40
2022-08-04T22:13:52.602Z,2.10
2022-08-04T22:16:04.496Z,2.20
2022-08-04T22:17:35.607Z,2.53
2022-08-04T22:19:10.917Z,2.33
2022-08-04T22:20:43.310Z,2.20
2022-08-04T22:22:25.548Z,2.10
2022-08-04T22:24:00.440Z,2.13
2022-08-04T22:25:37.636Z,2.03
2022-08-04T22:27:12.655Z,2.05
2022-08-04T22:28:45.963Z,2.33
2022-08-04T22:30:21.842Z,1.98
2022-08-04T22:31:56.876Z,2.30
2022-08-04T22:33:55.538Z,2.35
2022-08-04T22:35:36.041Z,2.38
2022-08-04T22:37:16.915Z,2.42
2022-08-04T22:39:04.439Z,2.30
2022-08-04T22:40:39.499Z,2.28
2022-08-04T22:42:14.703Z,2.67
2022-08-04T22:43:55.049Z,2.47
2022-08-04T22:45:29.110Z,2.38
2022-08-04T22:47:20.802Z,2.50
2022-08-04T22:48:57.914Z,2.47
2022-08-04T22:50:31.675Z,2.25
2022-08-04T22:52:10.138Z,1.98
2022-08-04T22:53:50.749Z,2.15
2022-08-04T22:55:22.958Z,2.10
2022-08-04T22:56:56.565Z,2.05
2022-08-04T22:58:28.911Z,2.05
2022-08-04T23:00:02.586Z,2.10
2022-08-04T23:02:00.217Z,2.05